createdAt,value
2017-07-28T00:00:24.161Z,99.9
2017-07-28T00:01:31.645Z,99.9
2017-07-28T00:02:38.803Z,99.9
2017-07-28T00:03:45.949Z,99.9
2017-07-28T00:04:53.731Z,99.9
2017-07-28T00:06:01.210Z,99.9
2017-07-28T00:07:08.700Z,99.9
2017-07-28T00:08:16.178Z,99.9
2017-07-28T00:09:23.660Z,99.9
2017-07-28T00:10:31.444Z,99.9
2017-07-28T00:11:38.597Z,99.9
2017-07-28T00:12:45.744Z,99.9
2017-07-28T00:13:53.220Z,99.9
2017-07-28T00:15:00.708Z,99.9
2017-07-28T00:16:08.483Z,99.9
2017-07-28T00:17:15.964Z,99.9
2017-07-28T00:18:23.449Z,99.9
2017-07-28T00:19:30.930Z,99.9
2017-07-28T00:20:38.407Z,99.9
2017-07-28T00:21:46.186Z,99.9
2017-07-28T00:22:53.662Z,99.9
2017-07-28T00:24:01.143Z,99.9
2017-07-28T00:25:08.296Z,99.9
2017-07-28T00:26:15.774Z,99.9
2017-07-28T00:27:23.215Z,99.9
2017-07-28T00:28:30.363Z,99.9
2017-07-28T00:30:59.577Z,99.9
2017-07-28T00:32:06.727Z,99.9
2017-07-28T00:33:14.651Z,99.9
2017-07-28T00:34:21.806Z,99.9
2017-07-28T00:35:29.295Z,99.9
2017-07-28T00:36:36.765Z,99.9
2017-07-28T00:37:44.245Z,99.9
2017-07-28T00:38:52.024Z,99.9
2017-07-28T00:39:59.500Z,99.9
2017-07-28T00:41:06.980Z,99.9
2017-07-28T00:42:14.460Z,99.9
2017-07-28T00:43:21.954Z,99.9
2017-07-28T00:44:29.727Z,99.9
2017-07-28T00:45:37.207Z,99.9
2017-07-28T00:46:44.696Z,99.9
2017-07-28T00:47:51.842Z,99.9
2017-07-28T00:48:59.326Z,99.9
2017-07-28T00:50:06.771Z,99.9
2017-07-28T00:51:13.929Z,99.9
2017-07-28T00:52:21.407Z,99.9
2017-07-28T00:53:28.884Z,99.9
2017-07-28T00:54:36.363Z,99.9
2017-07-28T00:55:44.144Z,99.9
2017-07-28T00:56:51.625Z,99.9
2017-07-28T00:57:59.110Z,99.9
2017-07-28T00:59:05.934Z,99.9
2017-07-28T01:00:13.088Z,99.9
2017-07-28T01:01:20.865Z,99.9
2017-07-28T01:02:28.345Z,99.9
2017-07-28T01:03:35.824Z,99.9
2017-07-28T01:04:43.302Z,99.9
2017-07-28T01:05:50.780Z,99.9
2017-07-28T01:06:58.567Z,99.9
2017-07-28T01:08:06.042Z,99.9
2017-07-28T01:09:13.524Z,99.9
2017-07-28T01:10:21.002Z,99.9
2017-07-28T01:11:28.479Z,99.9
2017-07-28T01:12:36.263Z,99.9
2017-07-28T01:13:43.748Z,99.9
2017-07-28T01:14:51.231Z,99.9
2017-07-28T01:15:58.710Z,99.9
2017-07-28T01:17:05.855Z,99.9
2017-07-28T01:18:13.632Z,99.9
2017-07-28T01:19:21.115Z,99.9
2017-07-28T01:20:28.593Z,99.9
2017-07-28T01:21:36.076Z,99.9
2017-07-28T01:22:43.549Z,99.9
2017-07-28T01:23:51.346Z,99.9
2017-07-28T01:24:58.825Z,99.9
2017-07-28T01:26:06.309Z,99.9
2017-07-28T01:27:13.794Z,99.9
2017-07-28T01:28:21.266Z,99.9
2017-07-28T01:29:28.721Z,99.9
2017-07-28T01:30:36.202Z,99.9
2017-07-28T01:31:43.679Z,99.9
2017-07-28T01:32:51.159Z,99.9
2017-07-28T01:33:58.640Z,99.9
2017-07-28T01:35:06.425Z,99.9
2017-07-28T01:36:13.903Z,99.9
2017-07-28T01:37:21.380Z,99.9
2017-07-28T01:38:28.536Z,99.9
2017-07-28T01:39:36.016Z,99.9
2017-07-28T01:40:43.791Z,99.9
2017-07-28T01:41:51.269Z,99.9
2017-07-28T01:42:58.748Z,99.9
2017-07-28T01:44:06.227Z,99.9
2017-07-28T01:45:13.703Z,99.9
2017-07-28T01:46:21.490Z,99.9
2017-07-28T01:47:28.964Z,99.9
2017-07-28T01:48:36.116Z,99.5
2017-07-28T01:49:43.590Z,99.8
2017-07-28T01:50:51.070Z,99.9
2017-07-28T01:51:58.847Z,99.9
2017-07-28T01:53:06.001Z,99.9
2017-07-28T01:54:13.482Z,99.7
2017-07-28T01:55:20.963Z,99.9
2017-07-28T01:56:28.448Z,99.9
2017-07-28T01:57:35.563Z,99.9
2017-07-28T01:58:43.046Z,99.9
2017-07-28T01:59:50.198Z,99.9
2017-07-28T02:00:57.353Z,99.9
2017-07-28T02:02:04.833Z,99.9
2017-07-28T02:03:12.615Z,99.9
2017-07-28T02:04:20.095Z,99.9
2017-07-28T02:05:27.574Z,99.9
2017-07-28T02:06:35.048Z,99.9
2017-07-28T02:07:42.197Z,99.9
2017-07-28T02:08:49.974Z,99.9
2017-07-28T02:09:57.451Z,99.9
2017-07-28T02:11:04.932Z,99.9
2017-07-28T02:12:11.750Z,99.9
2017-07-28T02:13:19.234Z,99.9
2017-07-28T02:14:27.011Z,99.9
2017-07-28T02:15:34.497Z,99.9
2017-07-28T02:16:41.974Z,99.9
2017-07-28T02:17:49.455Z,99.9
2017-07-28T02:18:56.930Z,99.9
2017-07-28T02:20:04.712Z,99.9
2017-07-28T02:21:12.188Z,99.9
2017-07-28T02:22:19.342Z,99.6
2017-07-28T02:23:26.820Z,99.9
2017-07-28T02:24:34.309Z,99.9
2017-07-28T02:25:41.766Z,99.9
2017-07-28T02:26:49.240Z,99.9
2017-07-28T02:27:56.395Z,99.9
2017-07-28T02:29:03.879Z,99.9
2017-07-28T02:30:11.394Z,99.9
2017-07-28T02:31:18.845Z,99.9
2017-07-28T02:32:26.326Z,99.9
2017-07-28T02:33:33.843Z,99.9
2017-07-28T02:34:40.981Z,99.9
2017-07-28T02:35:48.466Z,99.9
2017-07-28T02:36:56.252Z,99.9
2017-07-28T02:38:03.735Z,99.9
2017-07-28T02:39:10.879Z,99.9
2017-07-28T02:40:18.024Z,99.9
2017-07-28T02:41:25.502Z,99.9
2017-07-28T02:42:33.290Z,99.9
2017-07-28T02:43:40.439Z,99.9
2017-07-28T02:44:47.920Z,99.9
2017-07-28T02:45:55.403Z,99.9
2017-07-28T02:47:02.882Z,99.9
2017-07-28T02:48:10.676Z,99.9
2017-07-28T02:49:18.152Z,99.9
2017-07-28T02:50:26.237Z,99.9
2017-07-28T02:51:33.726Z,99.9
2017-07-28T02:52:41.222Z,99.9
2017-07-28T02:53:49.000Z,99.9
2017-07-28T02:54:56.481Z,99.9
2017-07-28T02:56:03.958Z,99.9
2017-07-28T02:57:11.437Z,99.9
2017-07-28T02:58:18.917Z,99.9
2017-07-28T02:59:26.694Z,99.9
2017-07-28T03:00:34.176Z,99.9
2017-07-28T03:01:41.654Z,99.9
2017-07-28T03:02:49.136Z,99.9
2017-07-28T03:03:56.286Z,99.9
2017-07-28T03:05:03.392Z,99.9
2017-07-28T03:06:10.872Z,99.9
2017-07-28T03:07:18.345Z,99.9
2017-07-28T03:08:25.818Z,99.9
2017-07-28T03:09:32.968Z,99.9
2017-07-28T03:10:40.741Z,99.9
2017-07-28T03:11:48.224Z,99.9
2017-07-28T03:12:55.374Z,99.9
2017-07-28T03:14:02.859Z,99.9
2017-07-28T03:15:10.335Z,99.9
2017-07-28T03:16:17.780Z,99.9
2017-07-28T03:17:25.256Z,99.9
2017-07-28T03:18:32.742Z,99.9
2017-07-28T03:19:40.223Z,99.9
2017-07-28T03:20:47.709Z,99.9
2017-07-28T03:21:55.491Z,99.9
2017-07-28T03:23:02.973Z,99.9
2017-07-28T03:24:10.445Z,99.9
2017-07-28T03:25:17.957Z,99.9
2017-07-28T03:26:25.439Z,99.9
2017-07-28T03:27:33.213Z,99.9
2017-07-28T03:28:40.691Z,99.9
2017-07-28T03:29:48.163Z,99.9
2017-07-28T03:30:55.311Z,99.9
2017-07-28T03:32:02.791Z,99.9
2017-07-28T03:33:10.577Z,99.9
2017-07-28T03:34:17.736Z,99.9
2017-07-28T03:35:25.214Z,99.9
2017-07-28T03:36:32.367Z,99.9
2017-07-28T03:37:39.509Z,99.9
2017-07-28T03:38:47.283Z,99.9
2017-07-28T03:39:54.760Z,99.9
2017-07-28T03:41:02.568Z,99.9
2017-07-28T03:42:10.054Z,99.9
2017-07-28T03:43:17.532Z,99.9
2017-07-28T03:44:25.314Z,99.9
2017-07-28T03:45:32.791Z,99.9
2017-07-28T03:46:40.270Z,99.9
2017-07-28T03:47:47.750Z,99.9
2017-07-28T03:48:55.229Z,99.9
2017-07-28T03:50:02.709Z,99.9
2017-07-28T03:51:10.195Z,99.9
2017-07-28T03:52:17.675Z,99.9
2017-07-28T03:53:25.154Z,99.9
2017-07-28T03:54:32.630Z,99.9
2017-07-28T03:55:40.410Z,99.9
2017-07-28T03:56:47.880Z,99.9
2017-07-28T03:57:55.369Z,99.9
2017-07-28T03:59:02.848Z,99.9
2017-07-28T04:00:10.326Z,99.9
2017-07-28T04:01:18.103Z,99.9
2017-07-28T04:02:25.248Z,99.9
2017-07-28T04:03:32.729Z,99.9
2017-07-28T04:04:40.210Z,99.9
2017-07-28T04:05:47.686Z,99.9
2017-07-28T04:06:55.474Z,99.9
2017-07-28T04:08:02.951Z,99.9
2017-07-28T04:09:10.428Z,99.9
2017-07-28T04:10:17.905Z,99.9
2017-07-28T04:11:25.384Z,99.9
2017-07-28T04:12:32.864Z,99.9
2017-07-28T04:13:40.342Z,99.9
2017-07-28T04:14:47.839Z,99.9
2017-07-28T04:15:55.319Z,99.9
2017-07-28T04:17:03.103Z,99.9
2017-07-28T04:18:10.580Z,99.9
2017-07-28T04:19:18.056Z,99.9
2017-07-28T04:20:25.204Z,99.9
2017-07-28T04:21:32.680Z,99.9
2017-07-28T04:22:40.466Z,99.9
2017-07-28T04:23:47.942Z,99.9
2017-07-28T04:24:55.412Z,99.9
2017-07-28T04:26:02.561Z,99.9
2017-07-28T04:27:10.037Z,99.9
2017-07-28T04:28:17.811Z,99.9
2017-07-28T04:29:25.293Z,99.9
2017-07-28T04:30:32.780Z,99.9
2017-07-28T04:31:39.930Z,99.9
2017-07-28T04:32:47.080Z,99.9
2017-07-28T04:33:54.861Z,99.9
2017-07-28T04:35:02.336Z,99.9
2017-07-28T04:36:09.489Z,99.9
2017-07-28T04:37:16.962Z,99.9
2017-07-28T04:38:24.443Z,99.9
2017-07-28T04:39:31.923Z,99.9
2017-07-28T04:40:39.402Z,99.9
2017-07-28T04:41:46.573Z,99.9
2017-07-28T04:42:54.045Z,99.9
2017-07-28T04:44:01.526Z,99.9
2017-07-28T04:45:08.972Z,99.9
2017-07-28T04:46:16.137Z,99.9
2017-07-28T04:47:23.623Z,99.9
2017-07-28T04:48:31.102Z,99.4
2017-07-28T04:49:38.551Z,99.2
2017-07-28T04:50:46.024Z,99.8
2017-07-28T04:51:53.506Z,99.9
2017-07-28T04:53:00.647Z,99.9
2017-07-28T04:54:08.137Z,99.8
2017-07-28T04:55:15.913Z,99.5
2017-07-28T04:56:23.392Z,99.6
2017-07-28T04:57:30.873Z,99.5
2017-07-28T04:58:38.352Z,99.2
2017-07-28T05:01:07.866Z,99.8
2017-07-28T05:02:15.348Z,99.9
2017-07-28T05:03:22.831Z,99.9
2017-07-28T05:04:30.306Z,99.6
2017-07-28T05:05:37.783Z,99.5
2017-07-28T05:06:45.259Z,99.1
2017-07-28T05:07:52.420Z,98.6
2017-07-28T05:08:59.902Z,98.6
2017-07-28T05:10:07.381Z,98.6
2017-07-28T05:11:15.165Z,98.4
2017-07-28T05:12:22.649Z,98.6
2017-07-28T05:13:30.137Z,98.4
2017-07-28T05:14:37.285Z,98.4
2017-07-28T05:15:44.761Z,98.4
2017-07-28T05:16:52.211Z,98.4
2017-07-28T05:17:59.691Z,98.2
2017-07-28T05:19:07.166Z,98
2017-07-28T05:20:14.645Z,98.1
2017-07-28T05:21:21.796Z,98.4
2017-07-28T05:22:29.253Z,98
2017-07-28T05:23:36.402Z,97.8
2017-07-28T05:24:43.880Z,98
2017-07-28T05:25:51.354Z,98.2
2017-07-28T05:26:58.830Z,98.5
2017-07-28T05:28:06.608Z,97.2
2017-07-28T05:29:14.087Z,98.3
2017-07-28T05:30:21.579Z,97.5
2017-07-28T05:31:29.052Z,97.2
2017-07-28T05:32:36.536Z,97
2017-07-28T05:33:43.685Z,96.9
2017-07-28T05:34:51.165Z,97.8
2017-07-28T05:35:58.311Z,97.4
2017-07-28T05:37:05.792Z,97
2017-07-28T05:38:12.944Z,97.2
2017-07-28T05:39:20.724Z,97.1
2017-07-28T05:40:28.200Z,97
2017-07-28T05:41:35.681Z,96.9
2017-07-28T05:42:43.161Z,96.8
2017-07-28T05:43:50.948Z,97
2017-07-28T05:44:58.428Z,96.5
2017-07-28T05:46:05.906Z,96.8
2017-07-28T05:47:13.384Z,96
2017-07-28T05:48:20.863Z,96.3
2017-07-28T05:49:28.646Z,96.5
2017-07-28T05:50:36.126Z,96.4
2017-07-28T05:51:43.608Z,95.7
2017-07-28T05:52:51.086Z,96
2017-07-28T05:53:58.259Z,95.7
2017-07-28T05:55:06.042Z,94.3
2017-07-28T05:56:13.526Z,95.1
2017-07-28T05:57:21.009Z,94.6
2017-07-28T05:58:28.504Z,95
2017-07-28T05:59:35.656Z,94.4
2017-07-28T06:00:42.802Z,94.5
2017-07-28T06:01:49.947Z,94.2
2017-07-28T06:02:57.108Z,94.3
2017-07-28T06:04:04.592Z,94.5
2017-07-28T06:05:12.079Z,95.2
2017-07-28T06:06:19.859Z,94
2017-07-28T06:07:27.340Z,93
2017-07-28T06:08:34.814Z,93.8
2017-07-28T06:09:42.304Z,93.7
2017-07-28T06:10:49.455Z,93.5
2017-07-28T06:11:56.897Z,93.3
2017-07-28T06:13:04.399Z,93.1
2017-07-28T06:14:11.877Z,92.7
2017-07-28T06:15:19.353Z,93.6
2017-07-28T06:16:26.498Z,93.5
2017-07-28T06:17:33.980Z,92.9
2017-07-28T06:18:41.459Z,92.6
2017-07-28T06:19:48.945Z,93.2
2017-07-28T06:20:56.443Z,93
2017-07-28T06:22:03.593Z,93.5
2017-07-28T06:23:11.382Z,92.8
2017-07-28T06:24:18.539Z,91.9
2017-07-28T06:25:26.022Z,91.8
2017-07-28T06:26:33.492Z,92.1
2017-07-28T06:27:40.977Z,91.6
2017-07-28T06:28:48.759Z,92.1
2017-07-28T06:29:56.239Z,91.6
2017-07-28T06:31:03.719Z,92.4
2017-07-28T06:32:11.200Z,91.3
2017-07-28T06:33:18.679Z,91.5
2017-07-28T06:34:26.459Z,91.7
2017-07-28T06:35:33.939Z,91.6
2017-07-28T06:36:41.419Z,91.7
2017-07-28T06:37:48.900Z,90.6
2017-07-28T06:38:56.378Z,91
2017-07-28T06:40:03.863Z,91.2
2017-07-28T06:41:11.349Z,90.2
2017-07-28T06:42:18.827Z,90.8
2017-07-28T06:43:26.310Z,91.6
2017-07-28T06:44:33.792Z,90.9
2017-07-28T06:45:41.241Z,90.7
2017-07-28T06:46:48.718Z,89.5
2017-07-28T06:47:56.194Z,89.8
2017-07-28T06:49:03.669Z,89.9
2017-07-28T06:50:11.167Z,88.4
2017-07-28T06:51:18.947Z,90.1
2017-07-28T06:52:26.429Z,88.3
2017-07-28T06:53:33.911Z,89
2017-07-28T06:54:41.404Z,90.6
2017-07-28T06:55:48.551Z,87.8
2017-07-28T06:56:56.336Z,87.6
2017-07-28T06:58:03.818Z,88
2017-07-28T06:59:10.963Z,87.6
2017-07-28T07:00:18.671Z,89.4
2017-07-28T07:01:26.154Z,86.6
2017-07-28T07:02:33.934Z,85.8
2017-07-28T07:03:41.416Z,87.1
2017-07-28T07:04:48.894Z,88.5
2017-07-28T07:05:56.376Z,88
2017-07-28T07:07:03.854Z,87.8
2017-07-28T07:08:11.641Z,88.3
2017-07-28T07:09:18.785Z,86.7
2017-07-28T07:10:26.264Z,88.6
2017-07-28T07:11:33.742Z,86.2
2017-07-28T07:12:41.224Z,84.2
2017-07-28T07:13:49.009Z,82.2
2017-07-28T07:14:56.492Z,84.3
2017-07-28T07:16:03.972Z,85.3
2017-07-28T07:17:11.458Z,84.2
2017-07-28T07:18:18.935Z,84.7
2017-07-28T07:19:26.436Z,84.2
2017-07-28T07:20:33.589Z,84.9
2017-07-28T07:21:41.074Z,88.9
2017-07-28T07:22:48.557Z,86.4
2017-07-28T07:23:56.038Z,80.4
2017-07-28T07:25:03.821Z,83.8
2017-07-28T07:26:11.308Z,81.8
2017-07-28T07:27:18.798Z,82
2017-07-28T07:28:26.282Z,82.5
2017-07-28T07:29:33.431Z,81.7
2017-07-28T07:30:40.887Z,82.6
2017-07-28T07:31:48.034Z,81
2017-07-28T07:32:55.181Z,79.1
2017-07-28T07:34:02.339Z,81.5
2017-07-28T07:35:09.826Z,79.5
2017-07-28T07:36:17.608Z,81
2017-07-28T07:37:25.093Z,80.2
2017-07-28T07:38:32.585Z,83.7
2017-07-28T07:39:40.061Z,77.1
2017-07-28T07:40:47.546Z,78.5
2017-07-28T07:41:55.030Z,76.1
2017-07-28T07:43:02.508Z,78
2017-07-28T07:44:09.990Z,78.4
2017-07-28T07:45:17.476Z,79
2017-07-28T07:46:25.259Z,78.5
2017-07-28T07:47:32.747Z,75.2
2017-07-28T07:48:40.226Z,78
2017-07-28T07:49:47.713Z,77.8
2017-07-28T07:50:54.870Z,76.7
2017-07-28T07:52:02.651Z,78.3
2017-07-28T07:53:09.802Z,76.9
2017-07-28T07:54:16.959Z,77.8
2017-07-28T07:55:24.112Z,77.5
2017-07-28T07:56:31.600Z,77.6
2017-07-28T07:57:39.056Z,76.9
2017-07-28T07:58:46.539Z,78.1
2017-07-28T07:59:54.020Z,80.4
2017-07-28T08:01:00.852Z,79.3
2017-07-28T08:02:08.329Z,80.5
2017-07-28T08:03:16.119Z,77.6
2017-07-28T08:04:23.604Z,76.2
2017-07-28T08:05:31.106Z,77.2
2017-07-28T08:06:38.587Z,77.1
2017-07-28T08:07:46.074Z,79.3
2017-07-28T08:08:53.560Z,75.8
2017-07-28T08:10:01.065Z,73.3
2017-07-28T08:11:08.541Z,74.2
2017-07-28T08:12:16.027Z,72
2017-07-28T08:13:23.514Z,78.5
2017-07-28T08:14:31.293Z,74.6
2017-07-28T08:15:38.449Z,72.9
2017-07-28T08:16:45.946Z,73.3
2017-07-28T08:17:53.563Z,73.9
2017-07-28T08:19:01.046Z,73.7
2017-07-28T08:20:08.826Z,74.3
2017-07-28T08:21:16.324Z,71.6
2017-07-28T08:22:23.804Z,76.7
2017-07-28T08:23:31.287Z,74.6
2017-07-28T08:24:38.777Z,71.9
2017-07-28T08:25:46.265Z,72.8
2017-07-28T08:26:53.750Z,70.5
2017-07-28T08:28:01.226Z,70.8
2017-07-28T08:29:08.711Z,71.2
2017-07-28T08:30:16.190Z,73.3
2017-07-28T08:31:23.977Z,74.2
2017-07-28T08:32:31.457Z,73.1
2017-07-28T08:33:38.946Z,74.7
2017-07-28T08:34:46.435Z,75.7
2017-07-28T08:35:53.923Z,76.6
2017-07-28T08:37:01.713Z,72.4
2017-07-28T08:38:09.198Z,67.6
2017-07-28T08:39:16.690Z,69.4
2017-07-28T08:40:24.185Z,74.3
2017-07-28T08:41:31.672Z,68.4
2017-07-28T08:42:39.459Z,70.9
2017-07-28T08:43:46.939Z,67.6
2017-07-28T08:44:54.423Z,70.8
2017-07-28T08:46:01.908Z,68.9
2017-07-28T08:47:09.060Z,68.2
2017-07-28T08:48:16.543Z,68.1
2017-07-28T08:49:24.021Z,68
2017-07-28T08:50:31.170Z,65.4
2017-07-28T08:51:38.329Z,65.3
2017-07-28T08:52:45.821Z,66
2017-07-28T08:53:53.606Z,69.5
2017-07-28T08:55:00.757Z,65
2017-07-28T08:56:08.246Z,63.4
2017-07-28T08:57:15.403Z,65
2017-07-28T08:58:22.885Z,63
2017-07-28T08:59:30.674Z,63.5
2017-07-28T09:00:38.159Z,67.7
2017-07-28T09:01:45.649Z,64.2
2017-07-28T09:02:53.133Z,64.2
2017-07-28T09:04:00.614Z,61.9
2017-07-28T09:05:08.089Z,65.7
2017-07-28T09:06:15.578Z,66.3
2017-07-28T09:07:23.069Z,64.3
2017-07-28T09:08:30.224Z,63.5
2017-07-28T09:09:37.713Z,63.9
2017-07-28T09:10:45.506Z,65.4
2017-07-28T09:11:52.990Z,64
2017-07-28T09:13:00.478Z,65.4
2017-07-28T09:14:07.963Z,65.2
2017-07-28T09:15:15.457Z,65.6
2017-07-28T09:16:23.242Z,62.2
2017-07-28T09:17:30.393Z,66.1
2017-07-28T09:18:37.881Z,62.3
2017-07-28T09:19:45.367Z,63.9
2017-07-28T09:20:52.851Z,64.3
2017-07-28T09:22:00.636Z,64
2017-07-28T09:23:08.148Z,67.2
2017-07-28T09:24:15.638Z,63.5
2017-07-28T09:25:23.122Z,64.7
2017-07-28T09:26:30.612Z,64.6
2017-07-28T09:27:38.339Z,63
2017-07-28T09:28:45.823Z,64.1
2017-07-28T09:29:52.977Z,62.4
2017-07-28T09:31:00.460Z,63
2017-07-28T09:32:07.949Z,63.7
2017-07-28T09:33:15.735Z,63.6
2017-07-28T09:34:23.226Z,64.6
2017-07-28T09:35:30.715Z,65.9
2017-07-28T09:36:37.873Z,65.2
2017-07-28T09:37:45.607Z,65.9
2017-07-28T09:38:53.055Z,64.2
2017-07-28T09:40:00.543Z,67.1
2017-07-28T09:41:08.029Z,65.3
2017-07-28T09:42:15.520Z,65.7
2017-07-28T09:43:23.012Z,66.1
2017-07-28T09:44:30.797Z,63.2
2017-07-28T09:45:38.278Z,63.3
2017-07-28T09:46:45.766Z,64.9
2017-07-28T09:47:53.255Z,67.4
2017-07-28T09:49:00.740Z,61.8
2017-07-28T09:50:08.225Z,65.4
2017-07-28T09:51:15.391Z,64
2017-07-28T09:52:22.874Z,63.7
2017-07-28T09:53:30.361Z,63.4
2017-07-28T09:54:38.148Z,63.8
2017-07-28T09:55:45.307Z,63.3
2017-07-28T09:56:52.788Z,64.3
2017-07-28T09:58:00.273Z,62.8
2017-07-28T09:59:07.752Z,63.3
2017-07-28T10:00:15.539Z,64.2
2017-07-28T10:01:22.698Z,62.8
2017-07-28T10:02:30.186Z,62.7
2017-07-28T10:03:37.668Z,62.4
2017-07-28T10:04:45.158Z,63.9
2017-07-28T10:05:52.628Z,62
2017-07-28T10:07:00.116Z,61.1
2017-07-28T10:08:07.267Z,62.5
2017-07-28T10:09:14.756Z,61.7
2017-07-28T10:10:22.245Z,63.8
2017-07-28T10:11:30.029Z,62.2
2017-07-28T10:12:37.518Z,60.7
2017-07-28T10:13:45.004Z,60.5
2017-07-28T10:14:52.494Z,60.3
2017-07-28T10:15:59.985Z,61.1
2017-07-28T10:17:07.142Z,60.4
2017-07-28T10:18:14.620Z,59.8
2017-07-28T10:19:22.111Z,62.9
2017-07-28T10:20:29.593Z,55.1
2017-07-28T10:21:37.383Z,57
2017-07-28T10:22:44.873Z,59.5
2017-07-28T10:23:52.371Z,57.8
2017-07-28T10:24:59.855Z,58
2017-07-28T10:26:07.342Z,59.8
2017-07-28T10:27:15.128Z,58.6
2017-07-28T10:28:22.611Z,60
2017-07-28T10:29:29.764Z,59.2
2017-07-28T10:30:36.921Z,60.2
2017-07-28T10:31:44.401Z,59.2
2017-07-28T10:32:51.865Z,60.2
2017-07-28T10:33:59.358Z,61.7
2017-07-28T10:35:06.845Z,62
2017-07-28T10:36:14.332Z,60.6
2017-07-28T10:37:22.061Z,61.9
2017-07-28T10:38:29.513Z,60
2017-07-28T10:39:36.669Z,60
2017-07-28T10:40:44.158Z,57.6
2017-07-28T10:41:51.640Z,60.7
2017-07-28T10:42:59.127Z,56.6
2017-07-28T10:44:06.916Z,56.8
2017-07-28T10:45:14.406Z,58.3
2017-07-28T10:46:21.556Z,57.6
2017-07-28T10:47:29.042Z,56.5
2017-07-28T10:48:36.527Z,57.6
2017-07-28T10:49:44.015Z,60.2
2017-07-28T10:50:51.503Z,59.3
2017-07-28T10:51:58.992Z,59.6
2017-07-28T10:53:06.474Z,60.8
2017-07-28T10:54:13.958Z,60.3
2017-07-28T10:55:21.751Z,60.5
2017-07-28T10:56:29.237Z,61.2
2017-07-28T10:57:36.395Z,61.8
2017-07-28T10:58:43.882Z,60.8
2017-07-28T10:59:51.364Z,59.8
2017-07-28T11:00:59.153Z,61.1
2017-07-28T11:02:06.306Z,61.2
2017-07-28T11:03:13.795Z,61.8
2017-07-28T11:04:21.286Z,60.5
2017-07-28T11:05:28.769Z,60.9
2017-07-28T11:06:35.923Z,60.1
2017-07-28T11:07:43.078Z,60.5
2017-07-28T11:08:50.565Z,59.4
2017-07-28T11:09:57.727Z,59.1
2017-07-28T11:11:05.220Z,60.5
2017-07-28T11:12:12.357Z,59
2017-07-28T11:13:19.838Z,58.5
2017-07-28T11:14:27.327Z,57.8
2017-07-28T11:16:41.597Z,56.4
2017-07-28T11:17:49.389Z,58.5
2017-07-28T11:18:56.535Z,60
2017-07-28T11:20:04.022Z,59.1
2017-07-28T11:21:11.509Z,60.7
2017-07-28T11:22:18.998Z,58.3
2017-07-28T11:23:26.783Z,59.2
2017-07-28T11:24:34.272Z,56.6
2017-07-28T11:25:41.425Z,57.2
2017-07-28T11:26:48.908Z,54.8
2017-07-28T11:27:56.394Z,55.8
2017-07-28T11:29:03.553Z,58.5
2017-07-28T11:30:10.391Z,58.1
2017-07-28T11:31:17.871Z,56.2
2017-07-28T11:32:25.352Z,57.2
2017-07-28T11:33:32.843Z,55.4
2017-07-28T11:34:40.628Z,57.8
2017-07-28T11:35:48.112Z,57.9
2017-07-28T11:36:55.610Z,54.9
2017-07-28T11:38:03.092Z,58
2017-07-28T11:39:10.260Z,57
2017-07-28T11:40:18.049Z,55.3
2017-07-28T11:41:25.532Z,56.9
2017-07-28T11:42:33.021Z,58.7
2017-07-28T11:43:40.509Z,59.4
2017-07-28T11:44:48.010Z,55.8
2017-07-28T11:45:55.798Z,57
2017-07-28T11:47:03.315Z,56.4
2017-07-28T11:48:10.797Z,55
2017-07-28T11:49:17.948Z,56.9
2017-07-28T11:50:25.432Z,58.3
2017-07-28T11:51:33.269Z,58.7
2017-07-28T11:52:40.765Z,56.8
2017-07-28T11:53:48.253Z,58.6
2017-07-28T11:54:55.747Z,58.3
2017-07-28T11:56:03.241Z,60.8
2017-07-28T11:57:11.078Z,58.9
2017-07-28T11:58:18.570Z,56.7
2017-07-28T11:59:26.052Z,58
2017-07-28T12:00:33.537Z,58.2
2017-07-28T12:01:41.027Z,57.6
2017-07-28T12:02:48.184Z,60.8
2017-07-28T12:03:55.668Z,59.1
2017-07-28T12:05:03.159Z,59
2017-07-28T12:06:10.941Z,57.5
2017-07-28T12:07:18.430Z,56.8
2017-07-28T12:08:26.158Z,58.2
2017-07-28T12:09:33.643Z,57.6
2017-07-28T12:10:41.135Z,60.2
2017-07-28T12:11:48.594Z,58.5
2017-07-28T12:12:56.079Z,59.1
2017-07-28T12:14:03.567Z,59.7
2017-07-28T12:15:10.734Z,63.5
2017-07-28T12:16:18.218Z,58.3
2017-07-28T12:17:26.005Z,57.9
2017-07-28T12:18:33.495Z,59.3
2017-07-28T12:19:40.982Z,58.9
2017-07-28T12:20:48.464Z,55.8
2017-07-28T12:21:55.952Z,58.4
2017-07-28T12:23:03.441Z,59
2017-07-28T12:24:10.603Z,59.4
2017-07-28T12:25:17.761Z,59
2017-07-28T12:26:25.244Z,59.2
2017-07-28T12:27:32.734Z,57.6
2017-07-28T12:28:40.519Z,57.4
2017-07-28T12:29:48.005Z,60.3
2017-07-28T12:30:55.490Z,58.9
2017-07-28T12:32:02.974Z,59
2017-07-28T12:33:10.455Z,58.8
2017-07-28T12:34:18.244Z,59.3
2017-07-28T12:35:25.068Z,58.5
2017-07-28T12:36:32.220Z,59.7
2017-07-28T12:37:39.705Z,59.8
2017-07-28T12:38:47.195Z,59.5
2017-07-28T12:39:54.647Z,60.3
2017-07-28T12:41:02.138Z,60
2017-07-28T12:42:09.624Z,60.6
2017-07-28T12:43:17.105Z,60.6
2017-07-28T12:44:24.262Z,60.1
2017-07-28T12:45:31.747Z,59.6
2017-07-28T12:46:38.905Z,60.8
2017-07-28T12:47:46.395Z,60
2017-07-28T12:48:53.899Z,60
2017-07-28T12:50:01.384Z,60.4
2017-07-28T12:51:09.174Z,61.2
2017-07-28T12:52:16.327Z,60.6
2017-07-28T12:53:23.813Z,63.3
2017-07-28T12:54:31.299Z,62.3
2017-07-28T12:55:38.792Z,63
2017-07-28T12:56:46.582Z,60.9
2017-07-28T12:57:54.074Z,61.2
2017-07-28T12:59:01.234Z,61.8
2017-07-28T13:00:08.720Z,61
2017-07-28T13:01:16.207Z,62.9
2017-07-28T13:02:23.999Z,62.4
2017-07-28T13:03:31.488Z,61.2
2017-07-28T13:04:38.980Z,59.9
2017-07-28T13:05:46.468Z,60.2
2017-07-28T13:06:53.617Z,60.5
2017-07-28T13:08:01.083Z,59.8
2017-07-28T13:09:08.570Z,61.8
2017-07-28T13:10:16.056Z,61.4
2017-07-28T13:11:23.544Z,61.2
2017-07-28T13:12:31.031Z,61.8
2017-07-28T13:13:38.820Z,60.8
2017-07-28T13:14:46.315Z,60.8
2017-07-28T13:15:53.807Z,61.2
2017-07-28T13:17:01.315Z,62.1
2017-07-28T13:18:08.808Z,62.1
2017-07-28T13:19:16.591Z,62.2
2017-07-28T13:20:24.080Z,62.1
2017-07-28T13:21:31.571Z,63.1
2017-07-28T13:22:39.054Z,62.4
2017-07-28T13:23:46.547Z,60.8
2017-07-28T13:24:54.029Z,60.7
2017-07-28T13:26:01.185Z,62.7
2017-07-28T13:27:08.668Z,63.1
2017-07-28T13:28:16.156Z,62.4
2017-07-28T13:29:23.653Z,61.6
2017-07-28T13:30:31.432Z,61.7
2017-07-28T13:31:38.604Z,63.1
2017-07-28T13:32:46.086Z,62.9
2017-07-28T13:33:53.576Z,62.7
2017-07-28T13:35:01.062Z,62
2017-07-28T13:36:08.566Z,62.5
2017-07-28T13:37:15.729Z,62.6
2017-07-28T13:38:23.219Z,63
2017-07-28T13:39:30.700Z,62.5
2017-07-28T13:40:38.181Z,62.5
2017-07-28T13:41:46.020Z,62.1
2017-07-28T13:42:53.176Z,63
2017-07-28T13:44:00.659Z,61.2
2017-07-28T13:45:08.144Z,62.1
2017-07-28T13:46:15.641Z,62.1
2017-07-28T13:47:23.428Z,60.3
2017-07-28T13:48:30.579Z,59.3
2017-07-28T13:49:38.068Z,58.5
2017-07-28T13:50:45.559Z,57.7
2017-07-28T13:51:53.049Z,59
2017-07-28T13:53:00.894Z,60.3
2017-07-28T13:54:08.376Z,58.9
2017-07-28T13:55:15.865Z,60.1
2017-07-28T13:56:23.352Z,57.8
2017-07-28T13:57:30.514Z,60.2
2017-07-28T13:58:37.967Z,60.3
2017-07-28T13:59:45.454Z,60
2017-07-28T14:00:52.935Z,59.9
2017-07-28T14:02:00.443Z,59.8
2017-07-28T14:03:07.933Z,61.1
2017-07-28T14:04:15.728Z,58.5
2017-07-28T14:05:22.898Z,60.5
2017-07-28T14:06:30.064Z,61.8
2017-07-28T14:07:37.554Z,59.5
2017-07-28T14:08:44.371Z,61
2017-07-28T14:09:51.862Z,61.7
2017-07-28T14:10:59.352Z,60.6
2017-07-28T14:12:06.831Z,61.7
2017-07-28T14:13:14.001Z,60.9
2017-07-28T14:14:21.492Z,61.7
2017-07-28T14:15:28.959Z,60.9
2017-07-28T14:16:36.443Z,60.6
2017-07-28T14:17:43.931Z,61.6
2017-07-28T14:18:51.413Z,61
2017-07-28T14:19:58.572Z,61.1
2017-07-28T14:21:07.816Z,58.8
2017-07-28T14:22:15.303Z,60.1
2017-07-28T14:23:22.789Z,60.7
2017-07-28T14:24:30.283Z,61.5
2017-07-28T14:25:37.773Z,60.9
2017-07-28T14:26:45.259Z,60.3
2017-07-28T14:27:52.750Z,61.6
2017-07-28T14:29:00.256Z,61.2
2017-07-28T14:30:07.411Z,59.8
2017-07-28T14:31:14.902Z,61
2017-07-28T14:32:22.701Z,60.4
2017-07-28T14:33:30.180Z,59.2
2017-07-28T14:34:37.668Z,59.8
2017-07-28T14:35:45.153Z,61.1
2017-07-28T14:36:52.323Z,60.7
2017-07-28T14:37:59.784Z,61.9
2017-07-28T14:39:07.276Z,63.1
2017-07-28T14:40:14.102Z,60.9
2017-07-28T14:41:21.592Z,60.8
2017-07-28T14:42:29.083Z,60.8
2017-07-28T14:43:36.578Z,60.9
2017-07-28T14:44:44.065Z,62.5
2017-07-28T14:45:51.550Z,61.1
2017-07-28T14:46:59.040Z,61.8
2017-07-28T14:48:06.522Z,62.5
2017-07-28T14:49:14.315Z,63.9
2017-07-28T14:50:21.807Z,61.2
2017-07-28T14:51:28.961Z,63.3
2017-07-28T14:52:36.456Z,62
2017-07-28T14:53:43.610Z,59.5
2017-07-28T14:56:13.484Z,59.7
2017-07-28T14:57:21.061Z,58.5
2017-07-28T14:58:28.551Z,59.7
2017-07-28T14:59:35.707Z,59.2
2017-07-28T15:00:43.170Z,60.9
2017-07-28T15:01:50.890Z,60.1
2017-07-28T15:02:58.387Z,59.9
2017-07-28T15:04:05.872Z,58.5
2017-07-28T15:05:13.351Z,57.8
2017-07-28T15:06:20.842Z,58
2017-07-28T15:07:28.017Z,59
2017-07-28T15:08:35.512Z,60